Terminal Aerodrome Forecast
Issued by NWS Twin Cities, MN

Home | Current Version | Previous Version | Graphics & Text | Print | Product List | Glossary On
Versions: 1 2 3 4 5 6 7 8 9 10 11 12 13 14 15 16 17 18 19 20 21 22 23 24 25 26 27 28 29 30 31 32 33 34
000
FTUS43 KMPX 280300 AAA
TAFMSP
TAF AMD
KMSP 280310Z 2803/2906 08004KT P6SM SCT050 BKN250
     FM281200 11005KT P6SM SCT060 OVC120
     FM281500 12009KT P6SM VCSH OVC050
     FM281800 12009KT 6SM -SHRA BKN020 OVC035
      TEMPO 2820/2824 2SM -TSRA BKN015 OVC020CB=

USA.gov is the U.S. government's official web portal to all federal, state and local government web resources and services.